sensor_id;sensor_type;location;lat;lon;timestamp;temperature;humidity
8103;DHT22;4094;49.948;11.574;2022-08-20T00:01:24;22.10;70.50
8103;DHT22;4094;49.948;11.574;2022-08-20T00:03:53;22.10;70.50
8103;DHT22;4094;49.948;11.574;2022-08-20T00:06:23;22.10;70.40
8103;DHT22;4094;49.948;11.574;2022-08-20T00:08:51;22.10;70.40
8103;DHT22;4094;49.948;11.574;2022-08-20T00:11:23;22.00;70.20
8103;DHT22;4094;49.948;11.574;2022-08-20T00:13:54;22.00;70.30
8103;DHT22;4094;49.948;11.574;2022-08-20T00:16:29;22.00;70.60
8103;DHT22;4094;49.948;11.574;2022-08-20T00:18:59;22.00;71.30
8103;DHT22;4094;49.948;11.574;2022-08-20T00:21:29;22.00;70.60
8103;DHT22;4094;49.948;11.574;2022-08-20T00:23:58;22.00;70.30
8103;DHT22;4094;49.948;11.574;2022-08-20T00:26:28;22.00;70.30
8103;DHT22;4094;49.948;11.574;2022-08-20T00:28:57;21.90;70.20
8103;DHT22;4094;49.948;11.574;2022-08-20T00:31:27;21.90;70.30
8103;DHT22;4094;49.948;11.574;2022-08-20T00:33:56;21.90;70.20
8103;DHT22;4094;49.948;11.574;2022-08-20T00:36:25;21.90;70.30
8103;DHT22;4094;49.948;11.574;2022-08-20T00:38:59;21.90;70.30
8103;DHT22;4094;49.948;11.574;2022-08-20T00:41:29;21.90;70.20
8103;DHT22;4094;49.948;11.574;2022-08-20T00:44:08;21.90;70.00
8103;DHT22;4094;49.948;11.574;2022-08-20T00:46:41;21.90;70.00
8103;DHT22;4094;49.948;11.574;2022-08-20T00:49:14;21.80;70.10
8103;DHT22;4094;49.948;11.574;2022-08-20T00:51:45;21.80;70.40
8103;DHT22;4094;49.948;11.574;2022-08-20T00:54:17;21.80;70.30
8103;DHT22;4094;49.948;11.574;2022-08-20T00:56:50;21.80;70.20
8103;DHT22;4094;49.948;11.574;2022-08-20T00:59:23;21.80;70.50
8103;DHT22;4094;49.948;11.574;2022-08-20T01:01:55;21.80;70.70
8103;DHT22;4094;49.948;11.574;2022-08-20T01:04:26;21.80;70.80
8103;DHT22;4094;49.948;11.574;2022-08-20T01:06:56;21.80;70.80
8103;DHT22;4094;49.948;11.574;2022-08-20T01:09:25;21.80;70.80
8103;DHT22;4094;49.948;11.574;2022-08-20T01:12:15;21.80;70.90
8103;DHT22;4094;49.948;11.574;2022-08-20T01:14:45;21.80;70.80
8103;DHT22;4094;49.948;11.574;2022-08-20T01:17:21;21.90;70.60
8103;DHT22;4094;49.948;11.574;2022-08-20T01:19:55;21.90;70.20
8103;DHT22;4094;49.948;11.574;2022-08-20T01:22:31;21.80;70.30
8103;DHT22;4094;49.948;11.574;2022-08-20T01:25:24;21.80;70.50
8103;DHT22;4094;49.948;11.574;2022-08-20T01:27:57;21.80;70.40
8103;DHT22;4094;49.948;11.574;2022-08-20T01:30:27;21.80;70.50
8103;DHT22;4094;49.948;11.574;2022-08-20T01:32:57;21.80;70.50
8103;DHT22;4094;49.948;11.574;2022-08-20T01:35:27;21.80;70.50
8103;DHT22;4094;49.948;11.574;2022-08-20T01:37:56;21.80;70.40
8103;DHT22;4094;49.948;11.574;2022-08-20T01:40:38;21.80;70.60
8103;DHT22;4094;49.948;11.574;2022-08-20T01:43:13;21.80;70.90
8103;DHT22;4094;49.948;11.574;2022-08-20T01:45:44;21.80;71.40
8103;DHT22;4094;49.948;11.574;2022-08-20T01:48:17;21.80;70.50
8103;DHT22;4094;49.948;11.574;2022-08-20T01:50:59;21.80;70.50
8103;DHT22;4094;49.948;11.574;2022-08-20T01:53:34;21.80;70.60
8103;DHT22;4094;49.948;11.574;2022-08-20T01:56:06;21.80;70.60
8103;DHT22;4094;49.948;11.574;2022-08-20T01:58:40;21.80;70.50
8103;DHT22;4094;49.948;11.574;2022-08-20T02:01:18;21.80;70.50
8103;DHT22;4094;49.948;11.574;2022-08-20T02:03:48;21.80;70.50
8103;DHT22;4094;49.948;11.574;2022-08-20T02:06:17;21.80;70.40
8103;DHT22;4094;49.948;11.574;2022-08-20T02:08:47;21.80;70.20
8103;DHT22;4094;49.948;11.574;2022-08-20T02:11:16;21.80;70.30
8103;DHT22;4094;49.948;11.574;2022-08-20T02:13:46;21.80;70.40
8103;DHT22;4094;49.948;11.574;2022-08-20T02:16:21;21.80;70.50
8103;DHT22;4094;49.948;11.574;2022-08-20T02:18:52;21.80;70.40
8103;DHT22;4094;49.948;11.574;2022-08-20T02:21:26;21.80;70.50
8103;DHT22;4094;49.948;11.574;2022-08-20T02:23:56;21.70;70.60
8103;DHT22;4094;49.948;11.574;2022-08-20T02:26:25;21.70;70.50
8103;DHT22;4094;49.948;11.574;2022-08-20T02:28:56;21.70;70.50
8103;DHT22;4094;49.948;11.574;2022-08-20T02:31:27;21.70;70.50
8103;DHT22;4094;49.948;11.574;2022-08-20T02:34:02;21.70;70.70
8103;DHT22;4094;49.948;11.574;2022-08-20T02:36:49;21.70;70.90
8103;DHT22;4094;49.948;11.574;2022-08-20T02:39:19;21.70;71.00
8103;DHT22;4094;49.948;11.574;2022-08-20T02:41:48;21.70;71.00
8103;DHT22;4094;49.948;11.574;2022-08-20T02:44:18;21.70;71.00
8103;DHT22;4094;49.948;11.574;2022-08-20T02:46:48;21.70;71.00
8103;DHT22;4094;49.948;11.574;2022-08-20T02:49:18;21.70;71.00
8103;DHT22;4094;49.948;11.574;2022-08-20T02:51:47;21.70;71.10
8103;DHT22;4094;49.948;11.574;2022-08-20T02:54:17;21.70;71.10
8103;DHT22;4094;49.948;11.574;2022-08-20T02:56:46;21.70;71.10
8103;DHT22;4094;49.948;11.574;2022-08-20T02:59:15;21.70;71.30
8103;DHT22;4094;49.948;11.574;2022-08-20T03:01:48;21.70;71.40
8103;DHT22;4094;49.948;11.574;2022-08-20T03:04:27;21.70;71.40
8103;DHT22;4094;49.948;11.574;2022-08-20T03:06:56;21.70;71.40
8103;DHT22;4094;49.948;11.574;2022-08-20T03:09:25;21.70;71.40
8103;DHT22;4094;49.948;11.574;2022-08-20T03:11:54;21.70;71.40
8103;DHT22;4094;49.948;11.574;2022-08-20T03:14:23;21.70;71.70
8103;DHT22;4094;49.948;11.574;2022-08-20T03:16:53;21.70;71.50
8103;DHT22;4094;49.948;11.574;2022-08-20T03:19:23;21.70;71.60
8103;DHT22;4094;49.948;11.574;2022-08-20T03:21:52;21.70;71.60
8103;DHT22;4094;49.948;11.574;2022-08-20T03:24:21;21.70;71.60
8103;DHT22;4094;49.948;11.574;2022-08-20T03:26:49;21.70;71.50
8103;DHT22;4094;49.948;11.574;2022-08-20T03:29:18;21.70;71.50
8103;DHT22;4094;49.948;11.574;2022-08-20T03:31:47;21.70;71.50
8103;DHT22;4094;49.948;11.574;2022-08-20T03:34:17;21.70;71.50
8103;DHT22;4094;49.948;11.574;2022-08-20T03:36:46;21.70;71.50
8103;DHT22;4094;49.948;11.574;2022-08-20T03:39:15;21.80;71.40
8103;DHT22;4094;49.948;11.574;2022-08-20T03:41:44;21.70;71.40
8103;DHT22;4094;49.948;11.574;2022-08-20T03:44:13;21.70;71.40
8103;DHT22;4094;49.948;11.574;2022-08-20T03:46:42;21.70;71.40
8103;DHT22;4094;49.948;11.574;2022-08-20T03:49:11;21.70;71.30
8103;DHT22;4094;49.948;11.574;2022-08-20T03:51:41;21.70;71.30
8103;DHT22;4094;49.948;11.574;2022-08-20T03:54:25;21.70;71.30
8103;DHT22;4094;49.948;11.574;2022-08-20T03:56:59;21.70;71.20
8103;DHT22;4094;49.948;11.574;2022-08-20T03:59:39;21.70;71.30
8103;DHT22;4094;49.948;11.574;2022-08-20T04:02:08;21.70;71.40
8103;DHT22;4094;49.948;11.574;2022-08-20T04:04:38;21.70;71.50
8103;DHT22;4094;49.948;11.574;2022-08-20T04:07:14;21.70;71.40
8103;DHT22;4094;49.948;11.574;2022-08-20T04:09:44;21.70;71.30
8103;DHT22;4094;49.948;11.574;2022-08-20T04:12:13;21.60;71.40
8103;DHT22;4094;49.948;11.574;2022-08-20T04:14:42;21.60;71.40
8103;DHT22;4094;49.948;11.574;2022-08-20T04:17:11;21.60;71.40
8103;DHT22;4094;49.948;11.574;2022-08-20T04:19:41;21.60;71.40
8103;DHT22;4094;49.948;11.574;2022-08-20T04:22:12;21.60;71.30
8103;DHT22;4094;49.948;11.574;2022-08-20T04:24:42;21.60;71.40
8103;DHT22;4094;49.948;11.574;2022-08-20T04:27:11;21.60;71.70
8103;DHT22;4094;49.948;11.574;2022-08-20T04:29:41;21.60;72.30
8103;DHT22;4094;49.948;11.574;2022-08-20T04:32:11;21.60;71.60
8103;DHT22;4094;49.948;11.574;2022-08-20T04:34:43;21.60;71.70
8103;DHT22;4094;49.948;11.574;2022-08-20T04:37:18;21.60;71.70
8103;DHT22;4094;49.948;11.574;2022-08-20T04:39:48;21.60;71.80
8103;DHT22;4094;49.948;11.574;2022-08-20T04:42:33;21.60;71.80
8103;DHT22;4094;49.948;11.574;2022-08-20T04:45:03;21.60;71.80
8103;DHT22;4094;49.948;11.574;2022-08-20T04:47:33;21.60;72.00
8103;DHT22;4094;49.948;11.574;2022-08-20T04:50:06;21.60;72.00
8103;DHT22;4094;49.948;11.574;2022-08-20T04:52:39;21.60;72.00
8103;DHT22;4094;49.948;11.574;2022-08-20T04:55:09;21.70;72.10
8103;DHT22;4094;49.948;11.574;2022-08-20T04:57:38;21.70;72.20
8103;DHT22;4094;49.948;11.574;2022-08-20T05:00:12;21.70;72.30
8103;DHT22;4094;49.948;11.574;2022-08-20T05:02:42;21.70;72.30
8103;DHT22;4094;49.948;11.574;2022-08-20T05:05:11;21.70;72.20
8103;DHT22;4094;49.948;11.574;2022-08-20T05:07:44;21.70;72.20
8103;DHT22;4094;49.948;11.574;2022-08-20T05:10:15;21.70;72.30
8103;DHT22;4094;49.948;11.574;2022-08-20T05:12:45;21.70;72.40
8103;DHT22;4094;49.948;11.574;2022-08-20T05:15:24;21.70;72.40
8103;DHT22;4094;49.948;11.574;2022-08-20T05:17:55;21.80;72.50
8103;DHT22;4094;49.948;11.574;2022-08-20T05:20:24;21.80;72.30
8103;DHT22;4094;49.948;11.574;2022-08-20T05:23:01;21.80;72.10
8103;DHT22;4094;49.948;11.574;2022-08-20T05:25:30;21.80;72.00
8103;DHT22;4094;49.948;11.574;2022-08-20T05:28:01;21.80;71.90
8103;DHT22;4094;49.948;11.574;2022-08-20T05:30:30;21.80;71.90
8103;DHT22;4094;49.948;11.574;2022-08-20T05:33:02;21.80;72.00
8103;DHT22;4094;49.948;11.574;2022-08-20T05:35:34;21.80;71.90
8103;DHT22;4094;49.948;11.574;2022-08-20T05:38:08;21.90;71.90
8103;DHT22;4094;49.948;11.574;2022-08-20T05:40:39;21.90;71.90
8103;DHT22;4094;49.948;11.574;2022-08-20T05:43:08;21.90;72.20
8103;DHT22;4094;49.948;11.574;2022-08-20T05:45:39;21.80;72.30
8103;DHT22;4094;49.948;11.574;2022-08-20T05:48:11;21.90;72.20
8103;DHT22;4094;49.948;11.574;2022-08-20T05:50:41;21.90;72.20
8103;DHT22;4094;49.948;11.574;2022-08-20T05:53:12;21.90;72.10
8103;DHT22;4094;49.948;11.574;2022-08-20T05:55:41;21.90;72.20
8103;DHT22;4094;49.948;11.574;2022-08-20T05:58:16;21.90;72.20
8103;DHT22;4094;49.948;11.574;2022-08-20T06:00:48;21.90;72.30
8103;DHT22;4094;49.948;11.574;2022-08-20T06:03:18;21.90;72.30
8103;DHT22;4094;49.948;11.574;2022-08-20T06:06:05;21.90;72.10
8103;DHT22;4094;49.948;11.574;2022-08-20T06:08:56;21.90;72.10
8103;DHT22;4094;49.948;11.574;2022-08-20T06:11:25;22.00;72.10
8103;DHT22;4094;49.948;11.574;2022-08-20T06:13:54;22.00;71.90
8103;DHT22;4094;49.948;11.574;2022-08-20T06:16:23;22.00;72.00
8103;DHT22;4094;49.948;11.574;2022-08-20T06:18:56;22.00;72.00
8103;DHT22;4094;49.948;11.574;2022-08-20T06:21:25;22.00;71.90
8103;DHT22;4094;49.948;11.574;2022-08-20T06:23:56;22.00;71.90
8103;DHT22;4094;49.948;11.574;2022-08-20T06:26:29;22.00;71.90
8103;DHT22;4094;49.948;11.574;2022-08-20T06:28:58;22.00;71.90
8103;DHT22;4094;49.948;11.574;2022-08-20T06:31:28;22.00;71.90
8103;DHT22;4094;49.948;11.574;2022-08-20T06:33:57;22.00;73.10
8103;DHT22;4094;49.948;11.574;2022-08-20T06:36:26;22.10;72.30
8103;DHT22;4094;49.948;11.574;2022-08-20T06:38:56;22.10;72.10
8103;DHT22;4094;49.948;11.574;2022-08-20T06:41:26;22.10;72.10
8103;DHT22;4094;49.948;11.574;2022-08-20T06:44:04;22.10;72.20
8103;DHT22;4094;49.948;11.574;2022-08-20T06:46:35;22.10;72.20
8103;DHT22;4094;49.948;11.574;2022-08-20T06:49:05;22.20;72.40
8103;DHT22;4094;49.948;11.574;2022-08-20T06:51:35;22.20;72.10
8103;DHT22;4094;49.948;11.574;2022-08-20T06:54:08;22.20;71.80
8103;DHT22;4094;49.948;11.574;2022-08-20T06:56:37;22.20;71.90
8103;DHT22;4094;49.948;11.574;2022-08-20T06:59:06;22.30;71.90
8103;DHT22;4094;49.948;11.574;2022-08-20T07:01:35;22.30;71.40
8103;DHT22;4094;49.948;11.574;2022-08-20T07:04:04;22.30;71.70
8103;DHT22;4094;49.948;11.574;2022-08-20T07:06:35;22.30;71.50
8103;DHT22;4094;49.948;11.574;2022-08-20T07:09:04;22.40;71.70
8103;DHT22;4094;49.948;11.574;2022-08-20T07:11:35;22.40;71.60
8103;DHT22;4094;49.948;11.574;2022-08-20T07:14:04;22.40;71.50
8103;DHT22;4094;49.948;11.574;2022-08-20T07:16:33;22.40;71.50
8103;DHT22;4094;49.948;11.574;2022-08-20T07:19:02;22.40;71.40
8103;DHT22;4094;49.948;11.574;2022-08-20T07:21:32;22.40;71.40
8103;DHT22;4094;49.948;11.574;2022-08-20T07:24:01;22.50;71.10
8103;DHT22;4094;49.948;11.574;2022-08-20T07:26:30;22.50;70.90
8103;DHT22;4094;49.948;11.574;2022-08-20T07:29:01;22.50;70.40
8103;DHT22;4094;49.948;11.574;2022-08-20T07:31:30;22.50;70.70
8103;DHT22;4094;49.948;11.574;2022-08-20T07:34:16;22.50;70.40
8103;DHT22;4094;49.948;11.574;2022-08-20T07:36:46;22.50;70.40
8103;DHT22;4094;49.948;11.574;2022-08-20T07:39:17;22.50;70.50
8103;DHT22;4094;49.948;11.574;2022-08-20T07:41:47;22.50;70.90
8103;DHT22;4094;49.948;11.574;2022-08-20T07:44:31;22.50;71.00
8103;DHT22;4094;49.948;11.574;2022-08-20T07:47:01;22.50;71.40
8103;DHT22;4094;49.948;11.574;2022-08-20T07:49:36;22.50;71.30
8103;DHT22;4094;49.948;11.574;2022-08-20T07:52:06;22.50;71.10
8103;DHT22;4094;49.948;11.574;2022-08-20T07:54:35;22.50;70.70
8103;DHT22;4094;49.948;11.574;2022-08-20T07:57:04;22.60;70.70
8103;DHT22;4094;49.948;11.574;2022-08-20T07:59:35;22.60;70.70
8103;DHT22;4094;49.948;11.574;2022-08-20T08:02:04;22.60;70.70
8103;DHT22;4094;49.948;11.574;2022-08-20T08:04:33;22.60;70.70
8103;DHT22;4094;49.948;11.574;2022-08-20T08:07:04;22.60;70.70
8103;DHT22;4094;49.948;11.574;2022-08-20T08:09:33;22.60;71.00
8103;DHT22;4094;49.948;11.574;2022-08-20T08:12:03;22.60;70.80
8103;DHT22;4094;49.948;11.574;2022-08-20T08:14:34;22.70;70.90
8103;DHT22;4094;49.948;11.574;2022-08-20T08:17:04;22.70;70.70
8103;DHT22;4094;49.948;11.574;2022-08-20T08:19:37;22.70;70.60
8103;DHT22;4094;49.948;11.574;2022-08-20T08:22:09;22.70;70.60
8103;DHT22;4094;49.948;11.574;2022-08-20T08:24:39;22.70;70.50
8103;DHT22;4094;49.948;11.574;2022-08-20T08:27:24;22.70;70.60
8103;DHT22;4094;49.948;11.574;2022-08-20T08:29:54;22.80;70.50
8103;DHT22;4094;49.948;11.574;2022-08-20T08:32:24;22.70;70.50
8103;DHT22;4094;49.948;11.574;2022-08-20T08:34:52;22.80;70.30
8103;DHT22;4094;49.948;11.574;2022-08-20T08:37:22;22.80;69.90
8103;DHT22;4094;49.948;11.574;2022-08-20T08:39:56;22.80;69.90
8103;DHT22;4094;49.948;11.574;2022-08-20T08:42:33;22.80;69.70
8103;DHT22;4094;49.948;11.574;2022-08-20T08:45:11;22.80;69.50
8103;DHT22;4094;49.948;11.574;2022-08-20T08:47:44;22.80;69.70
8103;DHT22;4094;49.948;11.574;2022-08-20T08:50:19;22.80;69.60
8103;DHT22;4094;49.948;11.574;2022-08-20T08:53:15;22.80;69.50
8103;DHT22;4094;49.948;11.574;2022-08-20T08:55:46;22.80;70.60
8103;DHT22;4094;49.948;11.574;2022-08-20T08:58:15;22.80;69.70
8103;DHT22;4094;49.948;11.574;2022-08-20T09:00:45;22.80;69.70
8103;DHT22;4094;49.948;11.574;2022-08-20T09:03:27;22.90;69.60
8103;DHT22;4094;49.948;11.574;2022-08-20T09:05:59;22.90;69.90
8103;DHT22;4094;49.948;11.574;2022-08-20T09:08:31;22.90;70.10
8103;DHT22;4094;49.948;11.574;2022-08-20T09:11:03;22.90;70.00
8103;DHT22;4094;49.948;11.574;2022-08-20T09:13:32;23.00;69.90
8103;DHT22;4094;49.948;11.574;2022-08-20T09:16:03;23.00;69.80
8103;DHT22;4094;49.948;11.574;2022-08-20T09:18:32;23.00;69.90
8103;DHT22;4094;49.948;11.574;2022-08-20T09:21:02;23.10;70.00
8103;DHT22;4094;49.948;11.574;2022-08-20T09:23:31;23.10;70.00
8103;DHT22;4094;49.948;11.574;2022-08-20T09:26:01;23.10;69.90
8103;DHT22;4094;49.948;11.574;2022-08-20T09:28:30;23.10;69.60
8103;DHT22;4094;49.948;11.574;2022-08-20T09:31:05;23.10;69.10
8103;DHT22;4094;49.948;11.574;2022-08-20T09:33:34;23.10;68.90
8103;DHT22;4094;49.948;11.574;2022-08-20T09:36:04;23.10;68.90
8103;DHT22;4094;49.948;11.574;2022-08-20T09:38:53;23.10;69.00
8103;DHT22;4094;49.948;11.574;2022-08-20T09:41:22;23.10;69.20
8103;DHT22;4094;49.948;11.574;2022-08-20T09:43:51;23.10;68.90
8103;DHT22;4094;49.948;11.574;2022-08-20T09:46:22;23.10;69.00
8103;DHT22;4094;49.948;11.574;2022-08-20T09:48:54;23.10;69.40
8103;DHT22;4094;49.948;11.574;2022-08-20T09:51:23;23.10;69.70
8103;DHT22;4094;49.948;11.574;2022-08-20T09:53:53;23.10;69.80
8103;DHT22;4094;49.948;11.574;2022-08-20T09:56:24;23.20;70.70
8103;DHT22;4094;49.948;11.574;2022-08-20T09:58:54;23.20;70.00
8103;DHT22;4094;49.948;11.574;2022-08-20T10:01:31;23.30;69.80
8103;DHT22;4094;49.948;11.574;2022-08-20T10:04:01;23.30;69.80
8103;DHT22;4094;49.948;11.574;2022-08-20T10:06:30;23.40;69.70
8103;DHT22;4094;49.948;11.574;2022-08-20T10:09:04;23.40;69.20
8103;DHT22;4094;49.948;11.574;2022-08-20T10:11:34;23.50;69.00
8103;DHT22;4094;49.948;11.574;2022-08-20T10:14:03;23.50;68.80
8103;DHT22;4094;49.948;11.574;2022-08-20T10:16:34;23.50;68.40
8103;DHT22;4094;49.948;11.574;2022-08-20T10:19:05;23.60;68.10
8103;DHT22;4094;49.948;11.574;2022-08-20T10:21:35;23.60;67.80
8103;DHT22;4094;49.948;11.574;2022-08-20T10:24:06;23.60;68.20
8103;DHT22;4094;49.948;11.574;2022-08-20T10:26:37;23.70;68.30
8103;DHT22;4094;49.948;11.574;2022-08-20T10:29:06;23.70;67.70
8103;DHT22;4094;49.948;11.574;2022-08-20T10:31:37;23.80;67.60
8103;DHT22;4094;49.948;11.574;2022-08-20T10:34:06;23.80;67.30
8103;DHT22;4094;49.948;11.574;2022-08-20T10:36:35;23.90;67.50
8103;DHT22;4094;49.948;11.574;2022-08-20T10:39:04;23.90;67.80
8103;DHT22;4094;49.948;11.574;2022-08-20T10:41:33;23.90;67.50
8103;DHT22;4094;49.948;11.574;2022-08-20T10:44:06;24.00;67.60
8103;DHT22;4094;49.948;11.574;2022-08-20T10:46:37;24.10;67.10
8103;DHT22;4094;49.948;11.574;2022-08-20T10:49:06;24.10;66.60
8103;DHT22;4094;49.948;11.574;2022-08-20T10:51:34;24.10;66.60
8103;DHT22;4094;49.948;11.574;2022-08-20T10:54:03;24.10;66.60
8103;DHT22;4094;49.948;11.574;2022-08-20T10:56:39;24.10;66.60
8103;DHT22;4094;49.948;11.574;2022-08-20T10:59:08;24.10;66.60
8103;DHT22;4094;49.948;11.574;2022-08-20T11:01:39;24.10;66.30
8103;DHT22;4094;49.948;11.574;2022-08-20T11:04:08;24.10;66.40
8103;DHT22;4094;49.948;11.574;2022-08-20T11:06:37;24.20;66.20
8103;DHT22;4094;49.948;11.574;2022-08-20T11:09:06;24.20;65.80
8103;DHT22;4094;49.948;11.574;2022-08-20T11:11:36;24.20;65.70
8103;DHT22;4094;49.948;11.574;2022-08-20T11:14:05;24.20;65.60
8103;DHT22;4094;49.948;11.574;2022-08-20T11:16:35;24.20;65.70
8103;DHT22;4094;49.948;11.574;2022-08-20T11:19:05;24.20;65.90
8103;DHT22;4094;49.948;11.574;2022-08-20T11:21:34;24.20;65.70
8103;DHT22;4094;49.948;11.574;2022-08-20T11:24:04;24.30;65.80
8103;DHT22;4094;49.948;11.574;2022-08-20T11:26:33;24.30;65.50
8103;DHT22;4094;49.948;11.574;2022-08-20T11:29:03;24.30;64.70
8103;DHT22;4094;49.948;11.574;2022-08-20T11:31:32;24.30;64.80
8103;DHT22;4094;49.948;11.574;2022-08-20T11:34:01;24.40;65.30
8103;DHT22;4094;49.948;11.574;2022-08-20T11:36:32;24.40;65.30
8103;DHT22;4094;49.948;11.574;2022-08-20T11:39:01;24.40;65.00
8103;DHT22;4094;49.948;11.574;2022-08-20T11:41:29;24.40;64.60
8103;DHT22;4094;49.948;11.574;2022-08-20T11:43:58;24.40;64.60
8103;DHT22;4094;49.948;11.574;2022-08-20T11:46:48;24.40;65.10
8103;DHT22;4094;49.948;11.574;2022-08-20T11:49:17;24.40;65.00
8103;DHT22;4094;49.948;11.574;2022-08-20T11:51:48;24.40;65.20
8103;DHT22;4094;49.948;11.574;2022-08-20T11:54:17;24.40;65.10
8103;DHT22;4094;49.948;11.574;2022-08-20T11:56:46;24.50;65.30
8103;DHT22;4094;49.948;11.574;2022-08-20T11:59:16;24.40;65.40
8103;DHT22;4094;49.948;11.574;2022-08-20T12:01:46;24.40;65.50
8103;DHT22;4094;49.948;11.574;2022-08-20T12:04:30;24.40;65.70
8103;DHT22;4094;49.948;11.574;2022-08-20T12:07:11;24.40;65.80
8103;DHT22;4094;49.948;11.574;2022-08-20T12:09:41;24.40;66.30
8103;DHT22;4094;49.948;11.574;2022-08-20T12:12:18;24.30;66.10
8103;DHT22;4094;49.948;11.574;2022-08-20T12:14:49;24.30;66.40
8103;DHT22;4094;49.948;11.574;2022-08-20T12:17:21;24.30;66.50
8103;DHT22;4094;49.948;11.574;2022-08-20T12:19:55;24.40;67.00
8103;DHT22;4094;49.948;11.574;2022-08-20T12:22:26;24.40;67.10
8103;DHT22;4094;49.948;11.574;2022-08-20T12:24:55;24.40;67.00
8103;DHT22;4094;49.948;11.574;2022-08-20T12:27:26;24.40;66.70
8103;DHT22;4094;49.948;11.574;2022-08-20T12:29:58;24.40;66.50
8103;DHT22;4094;49.948;11.574;2022-08-20T12:32:30;24.40;66.40
8103;DHT22;4094;49.948;11.574;2022-08-20T12:34:59;24.40;66.50
8103;DHT22;4094;49.948;11.574;2022-08-20T12:37:30;24.30;66.40
8103;DHT22;4094;49.948;11.574;2022-08-20T12:40:02;24.30;66.50
8103;DHT22;4094;49.948;11.574;2022-08-20T12:42:32;24.40;66.70
8103;DHT22;4094;49.948;11.574;2022-08-20T12:45:02;24.30;66.40
8103;DHT22;4094;49.948;11.574;2022-08-20T12:47:34;24.40;66.70
8103;DHT22;4094;49.948;11.574;2022-08-20T12:50:07;24.40;66.50
8103;DHT22;4094;49.948;11.574;2022-08-20T12:52:44;24.40;66.20
8103;DHT22;4094;49.948;11.574;2022-08-20T12:55:17;24.40;66.00
8103;DHT22;4094;49.948;11.574;2022-08-20T12:57:49;24.40;66.10
8103;DHT22;4094;49.948;11.574;2022-08-20T13:00:21;24.40;65.90
8103;DHT22;4094;49.948;11.574;2022-08-20T13:02:55;24.40;65.80
8103;DHT22;4094;49.948;11.574;2022-08-20T13:05:27;24.40;65.50
8103;DHT22;4094;49.948;11.574;2022-08-20T13:08:05;24.40;65.50
8103;DHT22;4094;49.948;11.574;2022-08-20T13:10:37;24.40;65.20
8103;DHT22;4094;49.948;11.574;2022-08-20T13:13:11;24.40;65.50
8103;DHT22;4094;49.948;11.574;2022-08-20T13:15:45;24.40;65.90
8103;DHT22;4094;49.948;11.574;2022-08-20T13:18:14;24.50;65.50
8103;DHT22;4094;49.948;11.574;2022-08-20T13:20:43;24.50;65.20
8103;DHT22;4094;49.948;11.574;2022-08-20T13:23:14;24.50;65.10
8103;DHT22;4094;49.948;11.574;2022-08-20T13:25:42;24.60;64.90
8103;DHT22;4094;49.948;11.574;2022-08-20T13:28:11;24.60;65.10
8103;DHT22;4094;49.948;11.574;2022-08-20T13:30:40;24.60;65.10
8103;DHT22;4094;49.948;11.574;2022-08-20T13:33:09;24.60;65.20
8103;DHT22;4094;49.948;11.574;2022-08-20T13:35:39;24.70;65.10
8103;DHT22;4094;49.948;11.574;2022-08-20T13:38:08;24.70;64.90
8103;DHT22;4094;49.948;11.574;2022-08-20T13:40:39;24.70;64.90
8103;DHT22;4094;49.948;11.574;2022-08-20T13:43:08;24.70;64.60
8103;DHT22;4094;49.948;11.574;2022-08-20T13:45:39;24.80;64.50
8103;DHT22;4094;49.948;11.574;2022-08-20T13:48:09;24.70;64.30
8103;DHT22;4094;49.948;11.574;2022-08-20T13:50:42;24.70;64.00
8103;DHT22;4094;49.948;11.574;2022-08-20T13:53:15;24.70;63.70
8103;DHT22;4094;49.948;11.574;2022-08-20T13:55:46;24.70;63.90
8103;DHT22;4094;49.948;11.574;2022-08-20T13:58:15;24.70;64.00
8103;DHT22;4094;49.948;11.574;2022-08-20T14:00:45;24.60;63.90
8103;DHT22;4094;49.948;11.574;2022-08-20T14:03:16;24.60;63.80
8103;DHT22;4094;49.948;11.574;2022-08-20T14:05:46;24.60;64.30
8103;DHT22;4094;49.948;11.574;2022-08-20T14:08:17;24.60;64.70
8103;DHT22;4094;49.948;11.574;2022-08-20T14:10:48;24.60;65.40
8103;DHT22;4094;49.948;11.574;2022-08-20T14:13:20;24.60;66.00
8103;DHT22;4094;49.948;11.574;2022-08-20T14:15:49;24.60;66.70
8103;DHT22;4094;49.948;11.574;2022-08-20T14:18:18;24.50;67.30
8103;DHT22;4094;49.948;11.574;2022-08-20T14:20:48;24.50;67.30
8103;DHT22;4094;49.948;11.574;2022-08-20T14:23:17;24.40;67.30
8103;DHT22;4094;49.948;11.574;2022-08-20T14:25:51;24.40;67.60
8103;DHT22;4094;49.948;11.574;2022-08-20T14:28:21;24.40;67.80
8103;DHT22;4094;49.948;11.574;2022-08-20T14:30:51;24.30;67.60
8103;DHT22;4094;49.948;11.574;2022-08-20T14:33:21;24.20;67.40
8103;DHT22;4094;49.948;11.574;2022-08-20T14:35:51;24.20;67.80
8103;DHT22;4094;49.948;11.574;2022-08-20T14:38:21;24.10;68.00
8103;DHT22;4094;49.948;11.574;2022-08-20T14:40:51;24.10;68.60
8103;DHT22;4094;49.948;11.574;2022-08-20T14:43:20;24.00;69.10
8103;DHT22;4094;49.948;11.574;2022-08-20T14:45:49;24.00;69.20
8103;DHT22;4094;49.948;11.574;2022-08-20T14:48:18;24.00;69.50
8103;DHT22;4094;49.948;11.574;2022-08-20T14:50:47;23.90;69.50
8103;DHT22;4094;49.948;11.574;2022-08-20T14:53:18;23.90;69.80
8103;DHT22;4094;49.948;11.574;2022-08-20T14:55:47;23.90;70.90
8103;DHT22;4094;49.948;11.574;2022-08-20T14:58:17;23.90;70.30
8103;DHT22;4094;49.948;11.574;2022-08-20T15:00:47;23.90;70.70
8103;DHT22;4094;49.948;11.574;2022-08-20T15:03:16;23.90;70.90
8103;DHT22;4094;49.948;11.574;2022-08-20T15:05:47;23.90;71.00
8103;DHT22;4094;49.948;11.574;2022-08-20T15:08:17;23.90;71.00
8103;DHT22;4094;49.948;11.574;2022-08-20T15:10:46;23.90;71.20
8103;DHT22;4094;49.948;11.574;2022-08-20T15:13:15;23.90;71.20
8103;DHT22;4094;49.948;11.574;2022-08-20T15:15:45;23.90;71.10
8103;DHT22;4094;49.948;11.574;2022-08-20T15:18:14;23.90;71.00
8103;DHT22;4094;49.948;11.574;2022-08-20T15:20:43;23.90;71.20
8103;DHT22;4094;49.948;11.574;2022-08-20T15:23:12;23.90;71.30
8103;DHT22;4094;49.948;11.574;2022-08-20T15:25:41;23.90;71.20
8103;DHT22;4094;49.948;11.574;2022-08-20T15:28:10;23.90;70.80
8103;DHT22;4094;49.948;11.574;2022-08-20T15:30:40;23.90;70.70
8103;DHT22;4094;49.948;11.574;2022-08-20T15:33:11;23.90;71.00
8103;DHT22;4094;49.948;11.574;2022-08-20T15:35:40;23.90;71.10
8103;DHT22;4094;49.948;11.574;2022-08-20T15:38:09;23.90;71.40
8103;DHT22;4094;49.948;11.574;2022-08-20T15:40:38;23.90;71.40
8103;DHT22;4094;49.948;11.574;2022-08-20T15:43:07;24.00;71.50
8103;DHT22;4094;49.948;11.574;2022-08-20T15:45:36;24.00;71.10
8103;DHT22;4094;49.948;11.574;2022-08-20T15:48:13;24.00;71.20
8103;DHT22;4094;49.948;11.574;2022-08-20T15:51:08;24.00;71.30
8103;DHT22;4094;49.948;11.574;2022-08-20T15:53:50;24.00;71.30
8103;DHT22;4094;49.948;11.574;2022-08-20T15:59:35;24.00;71.20
8103;DHT22;4094;49.948;11.574;2022-08-20T16:02:18;24.00;70.50
8103;DHT22;4094;49.948;11.574;2022-08-20T16:05:04;24.00;70.40
8103;DHT22;4094;49.948;11.574;2022-08-20T16:07:42;23.90;70.00
8103;DHT22;4094;49.948;11.574;2022-08-20T16:10:19;23.90;69.50
8103;DHT22;4094;49.948;11.574;2022-08-20T16:12:55;23.90;69.30
8103;DHT22;4094;49.948;11.574;2022-08-20T16:15:29;23.90;68.90